Time;durP1;ratioP1;P1;durP2;ratioP2;P2;SDS_P1;SDS_P2;PMS_P1;PMS_P2;Temp;Humidity;BMP_temperature;BMP_pressure;BME280_temperature;BME280_humidity;BME280_pressure;Samples;Min_cycle;Max_cycle;Signal;HPM_P1;HPM_P2
2023/02/20 00:01:22;;;;;;;10.45;6.53;;;;;;;6.51;100.00;102528.00;4977949;28;20065;-73
2023/02/20 00:03:48;;;;;;;5.18;4.55;;;;;;;6.52;100.00;102526.25;4976215;28;20039;-73
2023/02/20 00:06:13;;;;;;;5.38;4.63;;;;;;;6.54;100.00;102519.31;4978343;28;20034;-73
2023/02/20 00:08:38;;;;;;;7.03;4.80;;;;;;;6.56;100.00;102519.31;4978708;28;20031;-73
2023/02/20 00:11:04;;;;;;;4.97;4.53;;;;;;;6.57;100.00;102516.72;4979052;28;20030;-73
2023/02/20 00:13:29;;;;;;;13.32;6.47;;;;;;;6.54;100.00;102516.69;4978369;28;20057;-73
2023/02/20 00:15:55;;;;;;;15.57;6.70;;;;;;;6.53;100.00;102514.94;4979186;28;20034;-73
2023/02/20 00:18:20;;;;;;;13.63;6.45;;;;;;;6.51;100.00;102516.69;4978634;28;20038;-73
2023/02/20 00:20:46;;;;;;;10.77;6.53;;;;;;;6.51;100.00;102516.69;4979337;28;20062;-73
2023/02/20 00:23:11;;;;;;;13.70;7.00;;;;;;;6.50;100.00;102494.13;4980988;28;20075;-73
2023/02/20 00:25:37;;;;;;;13.93;6.72;;;;;;;6.51;100.00;102488.94;4979596;28;20097;-73
2023/02/20 00:28:02;;;;;;;11.52;5.60;;;;;;;6.51;100.00;102488.06;4978616;28;20076;-73
2023/02/20 00:30:28;;;;;;;9.25;5.75;;;;;;;6.51;100.00;102488.06;4979063;28;20126;-73
2023/02/20 00:32:55;;;;;;;8.57;5.15;;;;;;;6.52;100.00;102484.59;4968912;28;20035;-73
2023/02/20 00:35:20;;;;;;;6.65;4.25;;;;;;;6.53;100.00;102476.78;4961363;28;20023;-73
2023/02/20 00:37:47;;;;;;;6.50;5.18;;;;;;;6.54;100.00;102475.91;4961309;28;20401;-73
2023/02/20 00:40:14;;;;;;;6.03;4.70;;;;;;;6.57;100.00;102480.28;4961724;28;20434;-73
2023/02/20 00:42:39;;;;;;;17.52;8.32;;;;;;;6.53;100.00;102476.78;4980771;28;20058;-73
2023/02/20 00:45:06;;;;;;;13.80;6.18;;;;;;;6.51;100.00;102475.94;4980663;28;20027;-73
2023/02/20 00:47:32;;;;;;;18.17;7.70;;;;;;;6.50;100.00;102475.91;4980133;28;20354;-73
2023/02/20 00:49:57;;;;;;;18.85;8.13;;;;;;;6.49;100.00;102479.38;4980758;28;20050;-73
2023/02/20 00:52:23;;;;;;;36.38;10.57;;;;;;;6.46;100.00;102479.38;4980295;28;20129;-73
2023/02/20 00:54:48;;;;;;;21.88;8.65;;;;;;;6.43;100.00;102476.75;4980366;28;20085;-73
2023/02/20 00:57:14;;;;;;;13.98;7.97;;;;;;;6.43;100.00;102474.16;5007420;28;20057;-73
2023/02/20 00:59:39;;;;;;;11.88;6.93;;;;;;;6.45;100.00;102464.63;4980610;28;20033;-73
2023/02/20 01:02:05;;;;;;;19.52;10.57;;;;;;;6.44;100.00;102452.47;4975214;28;20047;-73
2023/02/20 01:04:30;;;;;;;22.00;9.98;;;;;;;6.45;100.00;102449.00;4960593;28;20195;-73
2023/02/20 01:06:55;;;;;;;17.95;8.77;;;;;;;6.45;100.00;102455.06;4961191;28;20149;-73
2023/02/20 01:09:21;;;;;;;18.17;10.60;;;;;;;6.46;100.00;102461.16;4960714;28;20239;-73
2023/02/20 01:11:46;;;;;;;14.35;8.27;;;;;;;6.48;100.00;102457.69;4960952;28;20276;-73
2023/02/20 01:14:12;;;;;;;18.02;9.68;;;;;;;6.49;100.00;102454.22;4960975;28;20050;-73
2023/02/20 01:16:52;;;;;;;17.33;9.32;;;;;;;6.51;100.00;102454.22;4960735;28;20043;-73
2023/02/20 01:19:20;;;;;;;28.52;12.38;;;;;;;6.52;100.00;102448.16;4960646;28;20237;-73
2023/02/20 01:21:47;;;;;;;25.70;12.50;;;;;;;6.53;100.00;102444.66;4960751;28;20347;-73
2023/02/20 01:24:13;;;;;;;19.60;11.38;;;;;;;6.52;100.00;102445.56;4960647;28;20106;-73
2023/02/20 01:26:40;;;;;;;20.55;11.25;;;;;;;6.53;100.00;102434.25;4960341;28;20039;-73
2023/02/20 01:29:06;;;;;;;15.82;9.32;;;;;;;6.54;100.00;102434.25;4960878;28;20019;-73
2023/02/20 01:31:31;;;;;;;17.98;9.88;;;;;;;6.54;100.00;102418.66;4961194;28;20038;-73
2023/02/20 01:33:57;;;;;;;27.30;13.80;;;;;;;6.54;100.00;102408.22;4980354;28;20038;-73
2023/02/20 01:36:22;;;;;;;35.38;14.93;;;;;;;6.54;100.00;102409.97;4979740;28;20334;-73
2023/02/20 01:38:49;;;;;;;32.40;15.25;;;;;;;6.53;100.00;102408.22;4979965;28;20254;-73
2023/02/20 01:41:15;;;;;;;35.97;16.63;;;;;;;6.52;100.00;102409.97;4979752;28;20043;-73
2023/02/20 01:43:41;;;;;;;24.88;15.07;;;;;;;6.53;100.00;102410.81;4980118;28;20039;-73
2023/02/20 01:46:28;;;;;;;30.27;15.88;;;;;;;6.53;100.00;102411.72;4980005;28;20039;-73
2023/02/20 01:49:05;;;;;;;40.95;16.33;;;;;;;6.52;100.00;102402.16;4980336;28;20365;-73
2023/02/20 01:51:35;;;;;;;35.58;16.30;;;;;;;6.53;100.00;102397.81;4979484;28;20370;-73
2023/02/20 01:54:02;;;;;;;34.17;16.80;;;;;;;6.53;100.00;102388.28;4980273;28;20042;-73
2023/02/20 01:56:27;;;;;;;40.35;17.40;;;;;;;6.54;100.00;102381.34;4979687;28;20066;-73
2023/02/20 01:58:53;;;;;;;31.42;15.48;;;;;;;6.54;100.00;102379.59;4982624;28;20401;-73
2023/02/20 02:01:19;;;;;;;35.60;15.40;;;;;;;6.55;100.00;102372.69;4983501;28;20058;-73
2023/02/20 02:03:48;;;;;;;35.38;15.60;;;;;;;6.58;100.00;102366.59;4965111;28;20061;-73
2023/02/20 02:06:15;;;;;;;41.60;19.45;;;;;;;6.59;100.00;102373.56;4964279;28;20346;-73
2023/02/20 02:08:42;;;;;;;40.97;18.13;;;;;;;6.57;100.00;102365.75;4963853;28;20035;-73
2023/02/20 02:11:09;;;;;;;43.53;19.00;;;;;;;6.56;100.00;102364.00;4964238;28;20087;-73
2023/02/20 02:13:37;;;;;;;41.53;18.08;;;;;;;6.58;100.00;102366.59;4963776;28;20099;-73
2023/02/20 02:16:22;;;;;;;;;;;;;;;6.56;100.00;102363.13;4964641;28;20062;-73
2023/02/20 02:19:14;;;;;;;35.88;17.45;;;;;;;6.56;100.00;102358.78;4964065;29;20255;-73
2023/02/20 02:21:57;;;;;;;32.03;17.27;;;;;;;6.58;100.00;102349.22;4959797;29;20047;-73
2023/02/20 02:24:47;;;;;;;42.47;18.10;;;;;;;6.58;100.00;102345.78;4963935;28;20098;-73
2023/02/20 02:27:31;;;;;;;36.75;18.15;;;;;;;6.59;100.00;102337.09;4964263;29;20043;-73
2023/02/20 02:30:39;;;;;;;37.10;17.25;;;;;;;6.58;100.00;102336.22;4963928;28;20325;-73
2023/02/20 02:33:32;;;;;;;34.33;17.27;;;;;;;6.58;100.00;102324.94;4963896;28;20046;-73
2023/02/20 02:36:54;;;;;;;49.45;19.70;;;;;;;6.57;100.00;102342.31;4963755;28;20043;-73
2023/02/20 02:39:38;;;;;;;44.03;18.35;;;;;;;6.56;100.00;102335.34;4885439;29;20036;-73
2023/02/20 02:42:28;;;;;;;35.58;17.67;;;;;;;6.59;100.00;102339.72;4885787;29;20240;-73
2023/02/20 02:44:56;;;;;;;41.60;18.83;;;;;;;6.60;100.00;102346.63;4953990;29;20275;-73
2023/02/20 02:47:29;;;;;;;38.28;17.45;;;;;;;6.60;100.00;102333.63;4963203;28;20113;-73
2023/02/20 02:50:04;;;;;;;41.83;17.23;;;;;;;6.60;100.00;102341.44;4963485;28;20035;-73
2023/02/20 02:52:48;;;;;;;34.47;17.15;;;;;;;6.62;100.00;102340.59;4963148;28;20046;-73
2023/02/20 02:55:28;;;;;;;40.47;18.48;;;;;;;6.64;100.00;102335.34;4963182;28;20071;-73
2023/02/20 02:57:54;;;;;;;49.17;17.88;;;;;;;6.65;100.00;102334.50;4963358;28;20031;-73
2023/02/20 03:00:28;;;;;;;37.50;17.58;;;;;;;6.64;100.00;102328.44;4962976;28;20027;-73
2023/02/20 03:03:21;;;;;;;45.75;18.08;;;;;;;6.66;100.00;102334.50;4963067;28;20050;-73
2023/02/20 03:06:06;;;;;;;44.25;17.38;;;;;;;6.65;100.00;102332.75;4963423;28;20031;-73
2023/02/20 03:08:44;;;;;;;37.75;17.73;;;;;;;6.65;100.00;102324.94;4961897;28;20130;-73
2023/02/20 03:11:18;;;;;;;54.80;18.80;;;;;;;6.66;100.00;102325.81;4962881;28;20039;-73
2023/02/20 03:17:01;;;;;;;49.53;19.25;;;;;;;6.67;100.00;102325.78;4962786;29;20369;-73
2023/02/20 03:19:35;;;;;;;44.85;17.95;;;;;;;6.68;100.00;102330.16;4962792;29;20062;-73
2023/02/20 03:22:04;;;;;;;46.50;18.15;;;;;;;6.69;100.00;102339.72;4963101;28;20251;-73
2023/02/20 03:24:53;;;;;;;41.17;16.92;;;;;;;6.73;100.00;102345.75;4962513;28;20086;-73
2023/02/20 03:27:22;;;;;;;41.45;17.33;;;;;;;6.73;100.00;102337.94;4961768;29;20042;-73
2023/02/20 03:29:51;;;;;;;52.15;17.90;;;;;;;6.75;100.00;102336.22;4962801;28;20031;-73
2023/02/20 03:43:20;;;;;;;38.85;14.70;;;;;;;6.79;100.00;102335.34;4966931;29;20107;-72
2023/02/20 03:45:47;;;;;;;48.45;13.90;;;;;;;6.80;100.00;102342.28;4966981;28;20095;-71
2023/02/20 03:48:41;;;;;;;43.00;13.35;;;;;;;6.81;100.00;102324.94;4966491;28;20342;-71
2023/02/20 03:53:52;;;;;;;42.88;13.73;;;;;;;6.83;100.00;102320.59;4967328;29;20070;-71
2023/02/20 03:56:23;;;;;;;39.22;13.77;;;;;;;6.84;100.00;102306.69;4966300;28;20055;-71
2023/02/20 03:58:58;;;;;;;49.83;13.63;;;;;;;6.84;100.00;102299.75;4966374;28;20338;-71
2023/02/20 04:01:26;;;;;;;34.22;14.23;;;;;;;6.87;100.00;102304.94;4966072;28;20050;-71
2023/02/20 04:03:55;;;;;;;46.28;14.65;;;;;;;6.88;100.00;102311.03;4970471;28;20050;-71
2023/02/20 04:06:21;;;;;;;;;;;;;;;6.87;100.00;102304.94;4984588;28;20026;-71
2023/02/20 04:08:58;;;;;;;35.55;13.68;;;;;;;6.88;100.00;102324.91;4985641;28;19913;-72
2023/02/20 04:11:29;;;;;;;34.70;13.75;;;;;;;6.89;100.00;102315.38;4985424;28;20110;-72
2023/02/20 04:13:56;;;;;;;28.08;12.57;;;;;;;6.88;100.00;102314.50;4986040;28;20345;-72
2023/02/20 04:16:22;;;;;;;38.95;12.75;;;;;;;6.90;100.00;102317.97;4985041;28;20043;-72
2023/02/20 04:18:48;;;;;;;37.60;12.85;;;;;;;6.91;100.00;102314.50;4985782;28;20046;-71
2023/02/20 04:21:27;;;;;;;40.60;12.48;;;;;;;6.91;100.00;102304.09;4985397;28;20043;-71
2023/02/20 04:24:03;;;;;;;35.88;12.60;;;;;;;6.92;100.00;102302.34;4985921;28;20338;-72
2023/02/20 04:26:29;;;;;;;36.72;11.23;;;;;;;6.92;100.00;102316.22;4985654;28;20437;-72
2023/02/20 04:28:55;;;;;;;36.58;12.40;;;;;;;6.93;100.00;102296.28;4985501;28;20042;-71
2023/02/20 04:31:21;;;;;;;30.65;11.07;;;;;;;6.93;100.00;102306.69;4985611;28;20049;-71
2023/02/20 04:33:47;;;;;;;28.38;10.43;;;;;;;6.92;100.00;102303.19;4966379;28;20042;-71
2023/02/20 04:36:12;;;;;;;32.47;10.18;;;;;;;6.92;100.00;102315.38;4965884;28;20035;-71
2023/02/20 04:38:37;;;;;;;29.20;10.20;;;;;;;6.90;100.00;102317.97;4965433;28;20047;-71
2023/02/20 04:41:03;;;;;;;29.08;9.63;;;;;;;6.91;100.00;102311.00;4966112;28;20042;-71
2023/02/20 04:43:29;;;;;;;24.38;9.98;;;;;;;6.90;100.00;102315.38;4965691;28;20038;-71
2023/02/20 04:45:54;;;;;;;31.85;10.75;;;;;;;6.90;100.00;102317.97;4965604;28;20035;-71
2023/02/20 04:48:19;;;;;;;27.83;10.45;;;;;;;6.90;100.00;102306.69;4965733;28;20106;-71
2023/02/20 04:50:45;;;;;;;33.15;10.20;;;;;;;6.90;100.00;102314.50;4965406;28;20043;-71
2023/02/20 04:53:10;;;;;;;26.65;11.15;;;;;;;6.90;100.00;102310.16;4965984;28;20038;-71
2023/02/20 04:55:36;;;;;;;27.25;10.82;;;;;;;6.90;100.00;102306.69;4964978;28;20035;-71
2023/02/20 04:58:01;;;;;;;25.02;10.32;;;;;;;6.90;100.00;102309.28;4965759;28;20084;-71
2023/02/20 05:00:26;;;;;;;28.40;11.40;;;;;;;6.90;100.00;102307.56;4965339;28;20039;-71
2023/02/20 05:02:53;;;;;;;30.92;11.80;;;;;;;6.88;100.00;102311.91;4977023;28;20511;-72
2023/02/20 05:05:23;;;;;;;30.38;12.38;;;;;;;6.87;100.00;102320.56;4983371;28;20061;-72
2023/02/20 05:07:56;;;;;;;35.75;11.73;;;;;;;6.87;100.00;102327.53;4984089;28;20066;-72
2023/02/20 05:10:23;;;;;;;29.80;11.48;;;;;;;6.87;100.00;102325.78;4984289;28;20026;-71
2023/02/20 05:12:48;;;;;;;32.83;11.43;;;;;;;6.87;100.00;102311.91;4984027;28;20047;-71
2023/02/20 05:15:14;;;;;;;29.25;12.00;;;;;;;6.87;100.00;102322.31;4984645;28;20042;-71
2023/02/20 05:17:40;;;;;;;36.10;11.32;;;;;;;6.85;100.00;102329.28;4984156;28;20034;-71
2023/02/20 05:20:07;;;;;;;38.28;12.45;;;;;;;6.85;100.00;102337.94;4984346;28;20042;-71
2023/02/20 05:22:32;;;;;;;38.25;12.20;;;;;;;6.85;100.00;102329.28;4983921;28;20062;-71
2023/02/20 05:24:58;;;;;;;27.17;11.85;;;;;;;6.84;100.00;102320.59;4984220;28;20069;-71
2023/02/20 05:27:25;;;;;;;34.60;12.35;;;;;;;6.83;100.00;102328.41;4983767;28;20238;-71
2023/02/20 05:29:53;;;;;;;29.17;11.52;;;;;;;6.83;100.00;102333.63;4984145;28;20050;-71
2023/02/20 05:32:20;;;;;;;32.00;11.43;;;;;;;6.83;100.00;102326.66;4984289;28;20311;-71
2023/02/20 05:34:46;;;;;;;27.98;10.88;;;;;;;6.83;100.00;102320.59;4988304;28;20022;-71
2023/02/20 05:37:14;;;;;;;31.67;10.38;;;;;;;6.82;100.00;102331.88;4988340;28;20045;-71
2023/02/20 05:39:39;;;;;;;28.73;10.82;;;;;;;6.83;100.00;102341.44;4988064;28;20068;-71
2023/02/20 05:42:05;;;;;;;31.02;10.73;;;;;;;6.81;100.00;102324.94;4988397;28;20125;-71
2023/02/20 05:44:31;;;;;;;41.38;11.30;;;;;;;6.81;100.00;102320.59;4987655;28;20038;-71
2023/02/20 05:46:57;;;;;;;32.55;10.82;;;;;;;6.80;100.00;102324.03;4988132;28;20039;-71
2023/02/20 05:49:23;;;;;;;30.98;10.18;;;;;;;6.80;100.00;102328.41;4987920;28;20061;-71
2023/02/20 05:51:49;;;;;;;28.67;10.50;;;;;;;6.80;100.00;102325.78;4988122;28;20027;-71
2023/02/20 05:54:16;;;;;;;32.80;9.82;;;;;;;6.80;100.00;102326.66;4987884;28;20079;-71
2023/02/20 05:56:42;;;;;;;34.72;11.23;;;;;;;6.79;100.00;102326.69;4988218;28;20178;-71
2023/02/20 05:59:08;;;;;;;36.03;9.95;;;;;;;6.79;100.00;102324.06;4987887;28;20089;-71
2023/02/20 06:01:34;;;;;;;29.10;10.45;;;;;;;6.79;100.00;102326.69;4986077;28;20341;-71
2023/02/20 06:04:02;;;;;;;26.40;9.98;;;;;;;6.77;100.00;102321.47;4968757;28;20058;-71
2023/02/20 06:06:41;;;;;;;29.20;10.17;;;;;;;6.77;100.00;102311.06;4967607;28;20031;-71
2023/02/20 06:09:09;;;;;;;24.45;8.93;;;;;;;6.75;100.00;102312.81;4968462;28;20030;-71
2023/02/20 06:11:35;;;;;;;24.63;9.75;;;;;;;6.76;100.00;102308.44;4968049;28;20346;-71
2023/02/20 06:14:01;;;;;;;22.98;9.70;;;;;;;6.74;100.00;102324.06;4967467;29;20038;-72
2023/02/20 06:16:28;;;;;;;26.20;9.07;;;;;;;6.75;100.00;102314.50;4967909;28;20043;-71
2023/02/20 06:18:54;;;;;;;26.52;9.15;;;;;;;6.75;100.00;102319.72;4968015;28;20063;-71
2023/02/20 06:21:22;;;;;;;29.80;8.50;;;;;;;6.76;100.00;102321.47;4967575;28;20067;-71
2023/02/20 06:23:48;;;;;;;26.27;8.73;;;;;;;6.75;100.00;102323.22;4967873;28;20102;-71
2023/02/20 06:26:15;;;;;;;31.90;8.57;;;;;;;6.74;100.00;102339.69;4968088;28;20027;-71
2023/02/20 06:28:41;;;;;;;29.25;9.18;;;;;;;6.74;100.00;102318.84;4968090;28;20030;-71
2023/02/20 06:31:06;;;;;;;22.02;8.30;;;;;;;6.76;100.00;102318.88;4968292;28;20047;-72
2023/02/20 06:33:32;;;;;;;28.60;8.85;;;;;;;6.75;100.00;102317.13;4983029;28;20033;-71
2023/02/20 06:35:57;;;;;;;33.10;9.60;;;;;;;6.75;100.00;102311.91;4986584;28;20051;-71
2023/02/20 06:38:23;;;;;;;30.23;8.75;;;;;;;6.76;100.00;102324.06;4987764;28;20046;-71
2023/02/20 06:40:49;;;;;;;29.30;9.23;;;;;;;6.74;100.00;102321.47;4987180;28;20090;-71
2023/02/20 06:43:14;;;;;;;26.02;8.02;;;;;;;6.73;100.00;102318.00;4986755;28;20034;-71
2023/02/20 06:45:40;;;;;;;21.27;8.63;;;;;;;6.72;100.00;102326.66;4987033;28;20062;-71
2023/02/20 06:48:05;;;;;;;24.52;8.13;;;;;;;6.72;100.00;102329.28;4987562;28;20058;-71
2023/02/20 06:50:31;;;;;;;28.52;8.35;;;;;;;6.72;100.00;102337.09;4986285;28;20038;-71
2023/02/20 06:52:56;;;;;;;33.80;8.05;;;;;;;6.71;100.00;102330.16;4984937;28;20127;-71
2023/02/20 06:55:22;;;;;;;27.23;8.93;;;;;;;6.73;100.00;102336.22;4998535;28;20042;-71
2023/02/20 06:57:48;;;;;;;29.02;7.95;;;;;;;6.73;100.00;102335.34;5007260;28;20049;-71
2023/02/20 07:00:14;;;;;;;24.52;7.75;;;;;;;6.73;100.00;102323.22;5003649;28;20104;-71
2023/02/20 07:02:39;;;;;;;25.00;7.80;;;;;;;6.76;100.00;102327.53;5005048;28;20050;-71
2023/02/20 07:05:05;;;;;;;24.15;8.60;;;;;;;6.76;100.00;102327.53;4988942;28;20030;-71
2023/02/20 07:07:31;;;;;;;27.48;8.95;;;;;;;6.77;100.00;102325.78;5020705;28;20109;-71
2023/02/20 07:09:58;;;;;;;27.55;8.35;;;;;;;6.77;100.00;102338.81;5025491;28;20029;-71
2023/02/20 07:12:24;;;;;;;21.70;7.70;;;;;;;6.76;100.00;102326.69;5025468;28;20034;-71
2023/02/20 07:14:50;;;;;;;28.58;7.75;;;;;;;6.77;100.00;102324.06;5024868;28;20037;-71
2023/02/20 07:17:15;;;;;;;26.83;7.80;;;;;;;6.79;100.00;102329.28;5022244;28;20038;-71
2023/02/20 07:19:41;;;;;;;18.35;7.40;;;;;;;6.79;100.00;102343.16;5009386;28;20137;-71
2023/02/20 07:22:06;;;;;;;30.20;8.02;;;;;;;6.78;100.00;102335.34;5015008;28;20089;-71
2023/02/20 07:24:33;;;;;;;32.45;7.57;;;;;;;6.80;100.00;102338.81;5004380;28;20053;-71
2023/02/20 07:26:59;;;;;;;24.70;7.05;;;;;;;6.80;100.00;102334.47;5022160;28;20046;-71
2023/02/20 07:29:24;;;;;;;26.13;6.85;;;;;;;6.80;100.00;102329.25;5024043;28;20096;-71
2023/02/20 07:31:50;;;;;;;20.38;7.25;;;;;;;6.80;100.00;102331.00;5005218;28;20109;-71
2023/02/20 07:34:15;;;;;;;30.15;8.13;;;;;;;6.82;100.00;102339.69;5005039;28;20229;-71
2023/02/20 07:36:41;;;;;;;27.02;7.43;;;;;;;6.82;100.00;102337.97;5005119;28;20218;-71
2023/02/20 07:39:06;;;;;;;22.85;7.20;;;;;;;6.83;100.00;102337.06;4982196;28;20038;-71
2023/02/20 07:41:34;;;;;;;25.15;7.30;;;;;;;6.85;100.00;102340.53;5004353;28;20065;-71
2023/02/20 07:43:59;;;;;;;18.33;7.57;;;;;;;6.87;100.00;102338.78;5005661;28;20401;-71
2023/02/20 07:46:25;;;;;;;20.42;7.53;;;;;;;6.87;100.00;102330.97;5003559;28;20038;-71
2023/02/20 07:48:52;;;;;;;25.67;7.50;;;;;;;6.88;100.00;102335.34;5011873;28;20038;-71
2023/02/20 07:51:17;;;;;;;24.10;8.25;;;;;;;6.89;100.00;102341.41;5005011;28;20065;-71
2023/02/20 07:53:48;;;;;;;28.13;8.52;;;;;;;6.90;100.00;102351.81;5011240;28;20037;-71
2023/02/20 07:56:13;;;;;;;27.88;8.10;;;;;;;6.90;100.00;102320.56;5008849;28;20061;-71
2023/02/20 07:58:39;;;;;;;26.30;8.70;;;;;;;6.91;100.00;102335.34;4991338;28;20034;-71
2023/02/20 08:01:04;;;;;;;20.25;7.93;;;;;;;6.92;100.00;102344.88;4992671;28;20109;-71
2023/02/20 08:03:29;;;;;;;35.80;9.10;;;;;;;6.94;100.00;102336.22;5009760;28;20052;-71
2023/02/20 08:05:55;;;;;;;24.73;8.23;;;;;;;6.93;100.00;102322.31;5006074;28;20034;-71
2023/02/20 08:08:23;;;;;;;23.88;8.38;;;;;;;6.93;100.00;102340.56;5001596;28;20045;-71
2023/02/20 08:10:49;;;;;;;24.80;9.25;;;;;;;6.94;100.00;102338.81;5012662;28;20044;-71
2023/02/20 08:13:14;;;;;;;21.90;8.52;;;;;;;6.91;100.00;102345.75;5014339;28;20038;-71
2023/02/20 08:15:40;;;;;;;25.05;9.15;;;;;;;6.92;100.00;102337.06;4991620;28;20125;-71
2023/02/20 08:18:06;;;;;;;27.17;8.75;;;;;;;6.91;100.00;102345.75;4998572;28;20039;-72
2023/02/20 08:20:31;;;;;;;26.50;9.05;;;;;;;6.91;100.00;102350.09;5002555;28;20041;-71
2023/02/20 08:22:59;;;;;;;23.33;8.63;;;;;;;6.91;100.00;102356.19;5002203;28;20057;-71
2023/02/20 08:25:25;;;;;;;22.70;8.60;;;;;;;6.92;100.00;102346.63;5003094;28;20049;-71
2023/02/20 08:27:50;;;;;;;22.48;8.65;;;;;;;6.92;100.00;102357.91;5007515;28;20065;-72
2023/02/20 08:30:22;;;;;;;27.08;9.43;;;;;;;6.92;100.00;102360.50;4987471;28;20045;-71
2023/02/20 08:32:52;;;;;;;26.55;8.80;;;;;;;6.93;100.00;102348.38;5005427;28;20053;-71
2023/02/20 08:35:18;;;;;;;17.45;8.77;;;;;;;6.94;100.00;102344.88;5004607;28;20109;-72
2023/02/20 08:37:44;;;;;;;20.13;9.02;;;;;;;6.93;100.00;102356.19;5007819;28;20093;-71
2023/02/20 08:40:10;;;;;;;24.90;8.80;;;;;;;6.94;100.00;102350.09;5007851;28;20057;-71
2023/02/20 08:42:35;;;;;;;23.70;9.20;;;;;;;6.90;100.00;102346.63;5003897;28;20101;-71
2023/02/20 08:45:02;;;;;;;22.08;8.70;;;;;;;6.92;100.00;102341.41;5001934;28;20038;-71
2023/02/20 08:47:28;;;;;;;17.10;8.23;;;;;;;6.92;100.00;102344.00;5008379;28;20061;-72
2023/02/20 08:49:53;;;;;;;22.23;8.75;;;;;;;6.91;100.00;102348.38;5007286;28;20049;-71
2023/02/20 08:52:19;;;;;;;20.35;8.02;;;;;;;6.94;100.00;102351.84;4995782;28;20221;-71
2023/02/20 08:54:46;;;;;;;21.35;8.10;;;;;;;6.94;100.00;102344.03;4999691;28;20102;-71
2023/02/20 08:57:12;;;;;;;24.77;8.73;;;;;;;6.95;100.00;102327.50;4998631;28;20333;-71
2023/02/20 08:59:38;;;;;;;20.38;8.18;;;;;;;6.96;100.00;102340.53;4999893;28;20040;-71
2023/02/20 09:02:04;;;;;;;16.17;8.00;;;;;;;6.98;100.00;102333.56;5001590;28;20062;-71
2023/02/20 09:04:29;;;;;;;21.90;9.07;;;;;;;7.00;100.00;102336.19;4995233;28;20046;-71
2023/02/20 09:06:55;;;;;;;20.27;8.52;;;;;;;7.02;100.00;102331.84;5005026;28;20033;-71
2023/02/20 09:09:20;;;;;;;23.17;8.48;;;;;;;7.03;100.00;102313.59;5007458;28;20040;-71
2023/02/20 09:11:45;;;;;;;20.42;8.10;;;;;;;7.06;100.00;102330.97;5005699;28;20034;-72
2023/02/20 09:14:11;;;;;;;18.25;8.02;;;;;;;7.09;100.00;102325.75;5010639;28;20047;-71
2023/02/20 09:16:40;;;;;;;19.00;8.90;;;;;;;7.09;100.00;102325.75;4986154;28;20367;-71
2023/02/20 09:19:06;;;;;;;20.40;7.97;;;;;;;7.12;100.00;102333.56;4990624;28;20043;-71
2023/02/20 09:21:31;;;;;;;23.40;8.48;;;;;;;7.13;100.00;102330.09;5000624;28;20350;-71
2023/02/20 09:23:56;;;;;;;20.02;8.63;;;;;;;7.15;100.00;102345.69;5001656;28;20069;-71
2023/02/20 09:26:22;;;;;;;18.48;8.65;;;;;;;7.17;100.00;102341.34;5003179;28;20042;-71
2023/02/20 09:28:47;;;;;;;16.67;7.68;;;;;;;7.20;100.00;102341.34;5006039;28;20038;-71
2023/02/20 09:31:12;;;;;;;14.50;6.95;;;;;;;7.21;100.00;102343.94;4999938;28;20057;-71
2023/02/20 09:33:38;;;;;;;19.48;6.95;;;;;;;7.21;100.00;102341.34;5014104;28;20041;-71
2023/02/20 09:36:04;;;;;;;15.15;7.93;;;;;;;7.24;100.00;102348.28;4987671;28;20057;-71
2023/02/20 09:38:29;;;;;;;16.52;7.30;;;;;;;7.23;100.00;102355.25;5009454;28;20109;-71
2023/02/20 09:40:59;;;;;;;20.13;7.25;;;;;;;7.23;100.00;102357.84;5001361;28;20038;-71
2023/02/20 09:43:52;;;;;;;15.45;7.47;;;;;;;7.24;100.00;102358.69;5001946;28;20037;-71
2023/02/20 09:46:20;;;;;;;19.73;7.35;;;;;;;7.24;100.00;102363.91;5007598;28;20029;-71
2023/02/20 09:48:58;;;;;;;13.52;7.15;;;;;;;7.22;100.00;102356.13;5010156;28;20455;-71
2023/02/20 09:51:27;;;;;;;20.23;7.68;;;;;;;7.23;100.00;102349.16;5006410;28;20042;-71
2023/02/20 09:54:13;;;;;;;24.33;7.85;;;;;;;7.21;100.00;102340.50;5001000;28;20097;-71
2023/02/20 09:56:48;;;;;;;21.40;8.32;;;;;;;7.21;100.00;102353.53;4986746;28;20031;-71
2023/02/20 09:59:37;;;;;;;20.67;8.20;;;;;;;7.22;100.00;102342.22;5008834;28;20093;-71
2023/02/20 10:02:33;;;;;;;14.23;8.02;;;;;;;7.23;100.00;102341.34;4993316;28;20030;-71
2023/02/20 10:05:03;;;;;;;19.90;8.57;;;;;;;7.21;100.00;102343.94;5007117;28;20036;-71
2023/02/20 10:07:41;;;;;;;22.33;7.72;;;;;;;7.22;100.00;102331.78;5003220;28;20037;-71
2023/02/20 10:10:37;;;;;;;17.77;7.30;;;;;;;7.23;100.00;102342.22;5005969;28;20038;-71
2023/02/20 10:13:53;;;;;;;13.63;7.22;;;;;;;7.20;100.00;102347.41;5007244;28;20034;-71
2023/02/20 10:16:33;;;;;;;9.23;6.50;;;;;;;7.21;100.00;102338.75;4937444;29;20043;-71
2023/02/20 10:19:24;;;;;;;13.30;7.50;;;;;;;7.24;100.00;102345.66;4988611;28;20074;-71
2023/02/20 10:22:02;;;;;;;15.07;7.15;;;;;;;7.25;100.00;102350.03;5017418;28;20042;-71
2023/02/20 10:24:30;;;;;;;13.70;7.43;;;;;;;7.27;100.00;102366.53;5020432;28;20034;-71
2023/02/20 10:27:24;;;;;;;14.52;7.28;;;;;;;7.27;100.00;102350.88;5012126;28;20285;-71
2023/02/20 10:29:51;;;;;;;16.35;6.93;;;;;;;7.27;100.00;102348.28;5008760;28;20120;-71
2023/02/20 10:32:41;;;;;;;15.77;6.82;;;;;;;7.28;100.00;102348.28;5009046;28;20065;-71
2023/02/20 10:35:11;;;;;;;15.60;6.45;;;;;;;7.30;100.00;102350.88;5005491;28;20030;-71
2023/02/20 10:37:44;;;;;;;11.85;5.88;;;;;;;7.32;100.00;102346.53;5008192;28;20040;-71
2023/02/20 10:40:27;;;;;;;9.27;5.55;;;;;;;7.33;100.00;102335.25;5006595;28;20459;-71
2023/02/20 10:43:06;;;;;;;13.85;5.93;;;;;;;7.35;100.00;102338.72;5016843;28;20225;-71
2023/02/20 10:45:44;;;;;;;10.77;5.35;;;;;;;7.36;100.00;102337.81;4996834;28;20038;-71
2023/02/20 10:48:14;;;;;;;15.77;5.72;;;;;;;7.38;100.00;102341.28;5013315;28;20048;-71
2023/02/20 10:51:03;;;;;;;15.07;5.50;;;;;;;7.40;100.00;102349.09;5009381;28;20065;-72
2023/02/20 10:53:37;;;;;;;8.60;4.82;;;;;;;7.41;100.00;102348.25;5005421;28;20054;-72
2023/02/20 10:56:08;;;;;;;16.42;5.18;;;;;;;7.42;100.00;102337.81;5004397;28;20049;-71
2023/02/20 10:58:37;;;;;;;10.93;4.55;;;;;;;7.42;100.00;102335.22;5004130;28;20814;-72
2023/02/20 11:01:07;;;;;;;10.55;4.63;;;;;;;7.43;100.00;102326.50;5006107;28;20036;-71
2023/02/20 11:03:36;;;;;;;15.30;6.18;;;;;;;7.45;100.00;102344.75;5004593;28;20046;-71
2023/02/20 11:06:03;;;;;;;8.80;4.73;;;;;;;7.46;100.00;102347.34;5007332;28;20038;-71
2023/02/20 11:08:28;;;;;;;6.47;3.80;;;;;;;7.47;100.00;102343.88;5005211;28;20601;-71
2023/02/20 11:11:05;;;;;;;11.07;5.03;;;;;;;7.47;100.00;102338.66;5002115;28;20049;-71
2023/02/20 11:13:30;;;;;;;13.57;4.15;;;;;;;7.48;100.00;102316.94;5002755;28;20058;-72
2023/02/20 11:15:57;;;;;;;12.27;4.68;;;;;;;7.50;100.00;102311.72;5004680;28;20034;-71
2023/02/20 11:18:28;;;;;;;8.80;3.78;;;;;;;7.54;100.00;102330.81;5007218;28;20049;-71
2023/02/20 11:20:55;;;;;;;8.07;4.38;;;;;;;7.55;100.00;102316.91;5004345;28;20237;-72
2023/02/20 11:23:47;;;;;;;9.35;3.63;;;;;;;7.59;100.00;102323.84;5003689;28;20062;-71
2023/02/20 11:26:14;;;;;;;12.32;4.18;;;;;;;7.60;100.00;102302.09;5001738;28;20054;-71
2023/02/20 11:28:39;;;;;;;11.35;3.78;;;;;;;7.62;100.00;102284.69;4986907;28;20026;-71
2023/02/20 11:31:07;;;;;;;12.20;3.88;;;;;;;7.65;100.00;102276.88;5003586;28;20034;-71
2023/02/20 11:33:44;;;;;;;12.73;3.83;;;;;;;7.66;100.00;102268.19;5001534;28;20233;-71
2023/02/20 11:36:12;;;;;;;14.18;4.15;;;;;;;7.68;100.00;102284.69;5016966;28;20034;-71
2023/02/20 11:38:38;;;;;;;13.18;3.90;;;;;;;7.71;100.00;102286.41;5001962;28;20062;-71
2023/02/20 11:41:06;;;;;;;10.07;3.97;;;;;;;7.72;100.00;102262.94;4966499;28;20064;-72
2023/02/20 11:43:35;;;;;;;16.83;4.32;;;;;;;7.74;100.00;102260.31;4981299;28;20034;-72